sensor_id;sensor_type;location;lat;lon;timestamp;P1;durP1;ratioP1;P2;durP2;ratioP2
84925;SDS011;75187;48.190;16.294;2024-03-08T00:00:02;41.30;;;20.58;;
84925;SDS011;75187;48.190;16.294;2024-03-08T00:02:40;45.80;;;21.27;;
84925;SDS011;75187;48.190;16.294;2024-03-08T00:05:06;43.88;;;21.90;;
84925;SDS011;75187;48.190;16.294;2024-03-08T00:07:36;44.55;;;20.83;;
84925;SDS011;75187;48.190;16.294;2024-03-08T00:10:02;45.80;;;21.55;;
84925;SDS011;75187;48.190;16.294;2024-03-08T00:12:29;45.45;;;22.40;;
84925;SDS011;75187;48.190;16.294;2024-03-08T00:14:54;41.80;;;20.50;;
84925;SDS011;75187;48.190;16.294;2024-03-08T00:17:20;43.70;;;20.23;;
84925;SDS011;75187;48.190;16.294;2024-03-08T00:19:47;46.60;;;21.95;;
84925;SDS011;75187;48.190;16.294;2024-03-08T00:22:14;45.60;;;21.08;;
84925;SDS011;75187;48.190;16.294;2024-03-08T00:24:40;44.15;;;23.02;;
84925;SDS011;75187;48.190;16.294;2024-03-08T00:27:05;46.33;;;21.30;;
84925;SDS011;75187;48.190;16.294;2024-03-08T00:29:30;48.45;;;23.33;;
84925;SDS011;75187;48.190;16.294;2024-03-08T00:31:56;47.17;;;22.27;;
84925;SDS011;75187;48.190;16.294;2024-03-08T00:34:22;47.88;;;22.27;;
84925;SDS011;75187;48.190;16.294;2024-03-08T00:36:48;45.93;;;22.13;;
84925;SDS011;75187;48.190;16.294;2024-03-08T00:39:14;48.13;;;21.50;;
84925;SDS011;75187;48.190;16.294;2024-03-08T00:41:39;40.83;;;21.38;;
84925;SDS011;75187;48.190;16.294;2024-03-08T00:44:04;42.85;;;22.00;;
84925;SDS011;75187;48.190;16.294;2024-03-08T00:46:30;44.38;;;21.65;;
84925;SDS011;75187;48.190;16.294;2024-03-08T00:48:56;45.83;;;21.55;;
84925;SDS011;75187;48.190;16.294;2024-03-08T00:51:22;45.75;;;22.10;;
84925;SDS011;75187;48.190;16.294;2024-03-08T00:53:47;41.53;;;21.80;;
84925;SDS011;75187;48.190;16.294;2024-03-08T00:56:12;50.80;;;23.05;;
84925;SDS011;75187;48.190;16.294;2024-03-08T00:58:38;47.05;;;21.85;;
84925;SDS011;75187;48.190;16.294;2024-03-08T01:01:03;45.95;;;22.77;;
84925;SDS011;75187;48.190;16.294;2024-03-08T01:03:30;42.92;;;21.05;;
84925;SDS011;75187;48.190;16.294;2024-03-08T01:05:59;44.97;;;21.48;;
84925;SDS011;75187;48.190;16.294;2024-03-08T01:08:27;42.42;;;21.67;;
84925;SDS011;75187;48.190;16.294;2024-03-08T01:10:53;44.00;;;21.20;;
84925;SDS011;75187;48.190;16.294;2024-03-08T01:13:18;48.70;;;22.50;;
84925;SDS011;75187;48.190;16.294;2024-03-08T01:15:44;45.75;;;22.55;;
84925;SDS011;75187;48.190;16.294;2024-03-08T01:18:10;42.88;;;22.55;;
84925;SDS011;75187;48.190;16.294;2024-03-08T01:20:36;47.60;;;23.73;;
84925;SDS011;75187;48.190;16.294;2024-03-08T01:23:01;44.30;;;22.63;;
84925;SDS011;75187;48.190;16.294;2024-03-08T01:25:27;45.03;;;22.08;;
84925;SDS011;75187;48.190;16.294;2024-03-08T01:27:52;47.75;;;23.55;;
84925;SDS011;75187;48.190;16.294;2024-03-08T01:30:19;48.13;;;22.25;;
84925;SDS011;75187;48.190;16.294;2024-03-08T01:32:45;43.25;;;21.70;;
84925;SDS011;75187;48.190;16.294;2024-03-08T01:35:10;40.60;;;21.48;;
84925;SDS011;75187;48.190;16.294;2024-03-08T01:37:36;52.35;;;23.48;;
84925;SDS011;75187;48.190;16.294;2024-03-08T01:40:01;44.42;;;22.38;;
84925;SDS011;75187;48.190;16.294;2024-03-08T01:42:28;43.40;;;21.63;;
84925;SDS011;75187;48.190;16.294;2024-03-08T01:44:53;43.08;;;20.88;;
84925;SDS011;75187;48.190;16.294;2024-03-08T01:47:19;44.08;;;20.42;;
84925;SDS011;75187;48.190;16.294;2024-03-08T01:49:48;49.45;;;23.17;;
84925;SDS011;75187;48.190;16.294;2024-03-08T01:52:14;43.90;;;21.17;;
84925;SDS011;75187;48.190;16.294;2024-03-08T01:54:40;46.88;;;21.88;;
84925;SDS011;75187;48.190;16.294;2024-03-08T01:57:06;46.60;;;21.58;;
84925;SDS011;75187;48.190;16.294;2024-03-08T01:59:31;48.92;;;22.65;;
84925;SDS011;75187;48.190;16.294;2024-03-08T02:01:58;50.10;;;23.25;;
84925;SDS011;75187;48.190;16.294;2024-03-08T02:04:26;42.17;;;20.40;;
84925;SDS011;75187;48.190;16.294;2024-03-08T02:06:52;47.28;;;22.10;;
84925;SDS011;75187;48.190;16.294;2024-03-08T02:09:17;45.25;;;22.30;;
84925;SDS011;75187;48.190;16.294;2024-03-08T02:11:42;44.80;;;21.38;;
84925;SDS011;75187;48.190;16.294;2024-03-08T02:14:08;46.30;;;21.88;;
84925;SDS011;75187;48.190;16.294;2024-03-08T02:16:34;46.20;;;22.67;;
84925;SDS011;75187;48.190;16.294;2024-03-08T02:19:00;43.72;;;20.92;;
84925;SDS011;75187;48.190;16.294;2024-03-08T02:21:25;49.42;;;22.13;;
84925;SDS011;75187;48.190;16.294;2024-03-08T02:23:50;47.88;;;22.95;;
84925;SDS011;75187;48.190;16.294;2024-03-08T02:26:17;47.30;;;22.48;;
84925;SDS011;75187;48.190;16.294;2024-03-08T02:28:43;50.40;;;23.00;;
84925;SDS011;75187;48.190;16.294;2024-03-08T02:31:10;44.30;;;21.95;;
84925;SDS011;75187;48.190;16.294;2024-03-08T02:33:35;45.97;;;22.60;;
84925;SDS011;75187;48.190;16.294;2024-03-08T02:36:01;46.17;;;22.45;;
84925;SDS011;75187;48.190;16.294;2024-03-08T02:38:26;44.45;;;21.33;;
84925;SDS011;75187;48.190;16.294;2024-03-08T02:40:53;45.85;;;22.40;;
84925;SDS011;75187;48.190;16.294;2024-03-08T02:43:19;48.47;;;21.02;;
84925;SDS011;75187;48.190;16.294;2024-03-08T02:45:47;42.45;;;22.88;;
84925;SDS011;75187;48.190;16.294;2024-03-08T02:48:13;48.65;;;22.08;;
84925;SDS011;75187;48.190;16.294;2024-03-08T02:50:39;51.97;;;22.88;;
84925;SDS011;75187;48.190;16.294;2024-03-08T02:53:07;45.13;;;21.65;;
84925;SDS011;75187;48.190;16.294;2024-03-08T02:55:33;51.25;;;23.58;;
84925;SDS011;75187;48.190;16.294;2024-03-08T02:58:01;46.90;;;22.25;;
84925;SDS011;75187;48.190;16.294;2024-03-08T03:00:28;47.97;;;22.63;;
84925;SDS011;75187;48.190;16.294;2024-03-08T03:02:55;46.85;;;22.23;;
84925;SDS011;75187;48.190;16.294;2024-03-08T03:05:24;44.40;;;20.13;;
84925;SDS011;75187;48.190;16.294;2024-03-08T03:07:49;48.95;;;22.92;;
84925;SDS011;75187;48.190;16.294;2024-03-08T03:10:18;46.15;;;22.63;;
84925;SDS011;75187;48.190;16.294;2024-03-08T03:12:45;43.85;;;21.73;;
84925;SDS011;75187;48.190;16.294;2024-03-08T03:15:11;46.33;;;23.05;;
84925;SDS011;75187;48.190;16.294;2024-03-08T03:17:37;44.60;;;21.92;;
84925;SDS011;75187;48.190;16.294;2024-03-08T03:20:04;44.58;;;22.45;;
84925;SDS011;75187;48.190;16.294;2024-03-08T03:22:35;43.38;;;22.35;;
84925;SDS011;75187;48.190;16.294;2024-03-08T03:25:01;45.67;;;24.40;;
84925;SDS011;75187;48.190;16.294;2024-03-08T03:27:29;49.58;;;22.52;;
84925;SDS011;75187;48.190;16.294;2024-03-08T03:29:55;48.45;;;24.05;;
84925;SDS011;75187;48.190;16.294;2024-03-08T03:32:22;45.28;;;22.00;;
84925;SDS011;75187;48.190;16.294;2024-03-08T03:34:48;48.65;;;23.60;;
84925;SDS011;75187;48.190;16.294;2024-03-08T03:37:18;42.53;;;22.13;;
84925;SDS011;75187;48.190;16.294;2024-03-08T03:39:46;52.00;;;23.67;;
84925;SDS011;75187;48.190;16.294;2024-03-08T03:42:15;46.05;;;22.20;;
84925;SDS011;75187;48.190;16.294;2024-03-08T03:44:41;45.97;;;22.73;;
84925;SDS011;75187;48.190;16.294;2024-03-08T03:47:09;49.33;;;23.65;;
84925;SDS011;75187;48.190;16.294;2024-03-08T03:49:34;44.72;;;22.15;;
84925;SDS011;75187;48.190;16.294;2024-03-08T03:51:59;50.35;;;23.38;;
84925;SDS011;75187;48.190;16.294;2024-03-08T03:54:25;44.95;;;21.83;;
84925;SDS011;75187;48.190;16.294;2024-03-08T03:56:50;44.53;;;22.83;;
84925;SDS011;75187;48.190;16.294;2024-03-08T03:59:18;50.78;;;23.25;;
84925;SDS011;75187;48.190;16.294;2024-03-08T04:01:44;44.08;;;22.60;;
84925;SDS011;75187;48.190;16.294;2024-03-08T04:04:09;48.15;;;22.60;;
84925;SDS011;75187;48.190;16.294;2024-03-08T04:06:35;47.35;;;22.13;;
84925;SDS011;75187;48.190;16.294;2024-03-08T04:09:00;48.00;;;23.80;;
84925;SDS011;75187;48.190;16.294;2024-03-08T04:11:25;44.63;;;22.53;;
84925;SDS011;75187;48.190;16.294;2024-03-08T04:13:51;45.13;;;22.00;;
84925;SDS011;75187;48.190;16.294;2024-03-08T04:16:17;47.25;;;21.70;;
84925;SDS011;75187;48.190;16.294;2024-03-08T04:18:43;47.28;;;21.40;;
84925;SDS011;75187;48.190;16.294;2024-03-08T04:21:09;50.78;;;23.40;;
84925;SDS011;75187;48.190;16.294;2024-03-08T04:23:34;50.40;;;23.27;;
84925;SDS011;75187;48.190;16.294;2024-03-08T04:26:01;53.83;;;24.00;;
84925;SDS011;75187;48.190;16.294;2024-03-08T04:28:28;47.22;;;23.30;;
84925;SDS011;75187;48.190;16.294;2024-03-08T04:30:53;50.20;;;24.55;;
84925;SDS011;75187;48.190;16.294;2024-03-08T04:33:19;47.85;;;23.38;;
84925;SDS011;75187;48.190;16.294;2024-03-08T04:35:46;48.13;;;23.00;;
84925;SDS011;75187;48.190;16.294;2024-03-08T04:38:12;50.72;;;23.08;;
84925;SDS011;75187;48.190;16.294;2024-03-08T04:40:37;48.22;;;22.95;;
84925;SDS011;75187;48.190;16.294;2024-03-08T04:43:03;48.17;;;22.38;;
84925;SDS011;75187;48.190;16.294;2024-03-08T04:45:28;43.65;;;22.48;;
84925;SDS011;75187;48.190;16.294;2024-03-08T04:47:54;46.08;;;23.80;;
84925;SDS011;75187;48.190;16.294;2024-03-08T04:50:19;46.30;;;22.67;;
84925;SDS011;75187;48.190;16.294;2024-03-08T04:52:45;47.03;;;22.08;;
84925;SDS011;75187;48.190;16.294;2024-03-08T04:55:11;46.45;;;22.33;;
84925;SDS011;75187;48.190;16.294;2024-03-08T04:57:37;45.03;;;23.10;;
84925;SDS011;75187;48.190;16.294;2024-03-08T05:00:02;46.00;;;23.33;;
84925;SDS011;75187;48.190;16.294;2024-03-08T05:02:35;46.63;;;21.70;;
84925;SDS011;75187;48.190;16.294;2024-03-08T05:05:01;46.10;;;22.13;;
84925;SDS011;75187;48.190;16.294;2024-03-08T05:07:27;49.08;;;22.77;;
84925;SDS011;75187;48.190;16.294;2024-03-08T05:09:52;46.90;;;21.35;;
84925;SDS011;75187;48.190;16.294;2024-03-08T05:12:18;42.78;;;21.90;;
84925;SDS011;75187;48.190;16.294;2024-03-08T05:14:45;48.55;;;24.08;;
84925;SDS011;75187;48.190;16.294;2024-03-08T05:17:14;42.35;;;20.88;;
84925;SDS011;75187;48.190;16.294;2024-03-08T05:19:39;48.25;;;23.48;;
84925;SDS011;75187;48.190;16.294;2024-03-08T05:22:05;48.13;;;22.80;;
84925;SDS011;75187;48.190;16.294;2024-03-08T05:24:30;47.80;;;21.87;;
84925;SDS011;75187;48.190;16.294;2024-03-08T05:26:55;46.97;;;22.70;;
84925;SDS011;75187;48.190;16.294;2024-03-08T05:29:21;51.33;;;23.42;;
84925;SDS011;75187;48.190;16.294;2024-03-08T05:31:50;51.28;;;24.60;;
84925;SDS011;75187;48.190;16.294;2024-03-08T05:34:19;49.60;;;24.60;;
84925;SDS011;75187;48.190;16.294;2024-03-08T05:36:45;54.45;;;23.38;;
84925;SDS011;75187;48.190;16.294;2024-03-08T05:39:11;52.70;;;24.00;;
84925;SDS011;75187;48.190;16.294;2024-03-08T05:41:41;51.83;;;23.40;;
84925;SDS011;75187;48.190;16.294;2024-03-08T05:44:07;52.78;;;23.35;;
84925;SDS011;75187;48.190;16.294;2024-03-08T05:46:33;49.95;;;24.25;;
84925;SDS011;75187;48.190;16.294;2024-03-08T05:48:59;53.92;;;23.85;;
84925;SDS011;75187;48.190;16.294;2024-03-08T05:51:25;49.47;;;24.17;;
84925;SDS011;75187;48.190;16.294;2024-03-08T05:53:53;47.38;;;21.90;;
84925;SDS011;75187;48.190;16.294;2024-03-08T05:56:21;45.58;;;23.77;;
84925;SDS011;75187;48.190;16.294;2024-03-08T05:58:48;50.42;;;23.83;;
84925;SDS011;75187;48.190;16.294;2024-03-08T06:01:15;52.08;;;23.77;;
84925;SDS011;75187;48.190;16.294;2024-03-08T06:03:40;55.30;;;24.83;;
84925;SDS011;75187;48.190;16.294;2024-03-08T06:06:11;49.25;;;23.65;;
84925;SDS011;75187;48.190;16.294;2024-03-08T06:08:37;48.40;;;23.27;;
84925;SDS011;75187;48.190;16.294;2024-03-08T06:11:02;47.00;;;22.73;;
84925;SDS011;75187;48.190;16.294;2024-03-08T06:13:28;46.95;;;23.00;;
84925;SDS011;75187;48.190;16.294;2024-03-08T06:15:56;44.55;;;23.42;;
84925;SDS011;75187;48.190;16.294;2024-03-08T06:18:21;48.60;;;22.73;;
84925;SDS011;75187;48.190;16.294;2024-03-08T06:20:47;50.53;;;24.15;;
84925;SDS011;75187;48.190;16.294;2024-03-08T06:23:12;49.78;;;22.98;;
84925;SDS011;75187;48.190;16.294;2024-03-08T06:25:39;46.38;;;22.63;;
84925;SDS011;75187;48.190;16.294;2024-03-08T06:28:04;47.97;;;24.07;;
84925;SDS011;75187;48.190;16.294;2024-03-08T06:30:30;47.67;;;22.80;;
84925;SDS011;75187;48.190;16.294;2024-03-08T06:32:56;49.67;;;23.98;;
84925;SDS011;75187;48.190;16.294;2024-03-08T06:35:21;53.00;;;24.47;;
84925;SDS011;75187;48.190;16.294;2024-03-08T06:37:47;57.13;;;26.40;;
84925;SDS011;75187;48.190;16.294;2024-03-08T06:40:13;51.72;;;24.35;;
84925;SDS011;75187;48.190;16.294;2024-03-08T06:42:39;52.75;;;25.27;;
84925;SDS011;75187;48.190;16.294;2024-03-08T06:45:05;60.90;;;25.92;;
84925;SDS011;75187;48.190;16.294;2024-03-08T06:47:31;54.45;;;25.63;;
84925;SDS011;75187;48.190;16.294;2024-03-08T06:49:58;62.65;;;26.30;;
84925;SDS011;75187;48.190;16.294;2024-03-08T06:52:23;57.63;;;27.42;;
84925;SDS011;75187;48.190;16.294;2024-03-08T06:54:49;60.22;;;27.42;;
84925;SDS011;75187;48.190;16.294;2024-03-08T06:57:14;60.05;;;27.70;;
84925;SDS011;75187;48.190;16.294;2024-03-08T06:59:41;59.95;;;28.23;;
84925;SDS011;75187;48.190;16.294;2024-03-08T07:02:07;61.67;;;26.40;;
84925;SDS011;75187;48.190;16.294;2024-03-08T07:04:34;54.90;;;24.58;;
84925;SDS011;75187;48.190;16.294;2024-03-08T07:07:03;61.92;;;27.20;;
84925;SDS011;75187;48.190;16.294;2024-03-08T07:09:29;63.38;;;27.67;;
84925;SDS011;75187;48.190;16.294;2024-03-08T07:11:54;56.30;;;26.00;;
84925;SDS011;75187;48.190;16.294;2024-03-08T07:14:23;57.38;;;24.88;;
84925;SDS011;75187;48.190;16.294;2024-03-08T07:16:49;55.17;;;24.85;;
84925;SDS011;75187;48.190;16.294;2024-03-08T07:19:15;58.38;;;25.95;;
84925;SDS011;75187;48.190;16.294;2024-03-08T07:21:41;59.35;;;26.70;;
84925;SDS011;75187;48.190;16.294;2024-03-08T07:24:07;52.25;;;24.83;;
84925;SDS011;75187;48.190;16.294;2024-03-08T07:26:42;56.63;;;25.38;;
84925;SDS011;75187;48.190;16.294;2024-03-08T07:29:14;54.03;;;24.98;;
84925;SDS011;75187;48.190;16.294;2024-03-08T07:31:40;53.90;;;25.35;;
84925;SDS011;75187;48.190;16.294;2024-03-08T07:34:27;57.45;;;26.88;;
84925;SDS011;75187;48.190;16.294;2024-03-08T07:36:52;59.22;;;25.80;;
84925;SDS011;75187;48.190;16.294;2024-03-08T07:39:18;54.67;;;26.23;;
84925;SDS011;75187;48.190;16.294;2024-03-08T07:41:44;58.95;;;26.00;;
84925;SDS011;75187;48.190;16.294;2024-03-08T07:44:09;57.47;;;25.98;;
84925;SDS011;75187;48.190;16.294;2024-03-08T07:46:35;54.97;;;24.88;;
84925;SDS011;75187;48.190;16.294;2024-03-08T07:49:01;53.65;;;24.08;;
84925;SDS011;75187;48.190;16.294;2024-03-08T07:51:28;62.10;;;26.98;;
84925;SDS011;75187;48.190;16.294;2024-03-08T07:53:53;59.80;;;25.42;;
84925;SDS011;75187;48.190;16.294;2024-03-08T07:56:19;59.92;;;25.60;;
84925;SDS011;75187;48.190;16.294;2024-03-08T07:58:46;52.88;;;25.30;;
84925;SDS011;75187;48.190;16.294;2024-03-08T08:01:16;59.92;;;27.38;;
84925;SDS011;75187;48.190;16.294;2024-03-08T08:03:45;57.92;;;24.38;;
84925;SDS011;75187;48.190;16.294;2024-03-08T08:06:10;66.13;;;27.88;;
84925;SDS011;75187;48.190;16.294;2024-03-08T08:08:41;62.05;;;25.23;;
84925;SDS011;75187;48.190;16.294;2024-03-08T08:11:10;63.70;;;27.55;;
84925;SDS011;75187;48.190;16.294;2024-03-08T08:13:39;60.95;;;27.15;;
84925;SDS011;75187;48.190;16.294;2024-03-08T08:16:06;69.03;;;28.60;;
84925;SDS011;75187;48.190;16.294;2024-03-08T08:18:31;67.13;;;29.38;;
84925;SDS011;75187;48.190;16.294;2024-03-08T08:20:58;65.93;;;24.90;;
84925;SDS011;75187;48.190;16.294;2024-03-08T08:23:25;67.72;;;27.95;;
84925;SDS011;75187;48.190;16.294;2024-03-08T08:25:50;74.30;;;30.13;;
84925;SDS011;75187;48.190;16.294;2024-03-08T08:28:16;72.55;;;28.70;;
84925;SDS011;75187;48.190;16.294;2024-03-08T08:30:45;66.25;;;29.52;;
84925;SDS011;75187;48.190;16.294;2024-03-08T08:33:11;69.65;;;28.75;;
84925;SDS011;75187;48.190;16.294;2024-03-08T08:35:36;67.18;;;31.27;;
84925;SDS011;75187;48.190;16.294;2024-03-08T08:38:05;66.30;;;27.23;;
84925;SDS011;75187;48.190;16.294;2024-03-08T08:40:30;75.57;;;31.50;;
84925;SDS011;75187;48.190;16.294;2024-03-08T08:42:57;71.88;;;28.63;;
84925;SDS011;75187;48.190;16.294;2024-03-08T08:45:23;78.63;;;29.35;;
84925;SDS011;75187;48.190;16.294;2024-03-08T08:47:48;76.05;;;28.83;;
84925;SDS011;75187;48.190;16.294;2024-03-08T08:50:14;67.40;;;26.38;;
84925;SDS011;75187;48.190;16.294;2024-03-08T08:52:41;72.00;;;28.20;;
84925;SDS011;75187;48.190;16.294;2024-03-08T08:55:10;67.30;;;27.40;;
84925;SDS011;75187;48.190;16.294;2024-03-08T08:57:39;72.75;;;28.98;;
84925;SDS011;75187;48.190;16.294;2024-03-08T09:00:05;68.80;;;27.70;;
84925;SDS011;75187;48.190;16.294;2024-03-08T09:02:32;78.78;;;28.17;;
84925;SDS011;75187;48.190;16.294;2024-03-08T09:04:58;71.80;;;29.50;;
84925;SDS011;75187;48.190;16.294;2024-03-08T09:07:23;75.85;;;29.55;;
84925;SDS011;75187;48.190;16.294;2024-03-08T09:09:49;80.07;;;30.38;;
84925;SDS011;75187;48.190;16.294;2024-03-08T09:12:14;73.47;;;28.23;;
84925;SDS011;75187;48.190;16.294;2024-03-08T09:14:40;89.53;;;31.77;;
84925;SDS011;75187;48.190;16.294;2024-03-08T09:17:06;92.18;;;34.95;;
84925;SDS011;75187;48.190;16.294;2024-03-08T09:19:33;84.78;;;30.73;;
84925;SDS011;75187;48.190;16.294;2024-03-08T09:21:59;86.80;;;33.22;;
84925;SDS011;75187;48.190;16.294;2024-03-08T09:24:24;84.10;;;32.50;;
84925;SDS011;75187;48.190;16.294;2024-03-08T09:26:50;98.47;;;33.47;;
84925;SDS011;75187;48.190;16.294;2024-03-08T09:29:17;80.13;;;29.55;;
84925;SDS011;75187;48.190;16.294;2024-03-08T09:31:43;91.68;;;30.83;;
84925;SDS011;75187;48.190;16.294;2024-03-08T09:34:11;78.60;;;29.80;;
84925;SDS011;75187;48.190;16.294;2024-03-08T09:36:36;96.65;;;30.63;;
84925;SDS011;75187;48.190;16.294;2024-03-08T09:39:01;76.13;;;27.58;;
84925;SDS011;75187;48.190;16.294;2024-03-08T09:41:27;81.00;;;29.80;;
84925;SDS011;75187;48.190;16.294;2024-03-08T09:43:55;79.35;;;28.80;;
84925;SDS011;75187;48.190;16.294;2024-03-08T09:46:22;82.82;;;27.10;;
84925;SDS011;75187;48.190;16.294;2024-03-08T09:48:48;79.97;;;27.08;;
84925;SDS011;75187;48.190;16.294;2024-03-08T09:51:13;78.55;;;29.38;;
84925;SDS011;75187;48.190;16.294;2024-03-08T09:53:40;85.53;;;28.65;;
84925;SDS011;75187;48.190;16.294;2024-03-08T09:56:07;82.10;;;27.45;;
84925;SDS011;75187;48.190;16.294;2024-03-08T09:58:33;79.18;;;28.98;;
84925;SDS011;75187;48.190;16.294;2024-03-08T10:00:59;87.03;;;29.00;;
84925;SDS011;75187;48.190;16.294;2024-03-08T10:03:29;80.68;;;26.85;;
84925;SDS011;75187;48.190;16.294;2024-03-08T10:05:58;68.72;;;25.75;;
84925;SDS011;75187;48.190;16.294;2024-03-08T10:08:27;76.68;;;24.98;;
84925;SDS011;75187;48.190;16.294;2024-03-08T10:10:54;76.47;;;28.95;;
84925;SDS011;75187;48.190;16.294;2024-03-08T10:13:20;72.03;;;26.25;;
84925;SDS011;75187;48.190;16.294;2024-03-08T10:15:45;73.65;;;27.92;;
84925;SDS011;75187;48.190;16.294;2024-03-08T10:18:11;71.75;;;25.95;;
84925;SDS011;75187;48.190;16.294;2024-03-08T10:20:36;73.00;;;25.92;;
84925;SDS011;75187;48.190;16.294;2024-03-08T10:23:02;82.90;;;27.63;;
84925;SDS011;75187;48.190;16.294;2024-03-08T10:25:30;77.13;;;26.85;;
84925;SDS011;75187;48.190;16.294;2024-03-08T10:27:56;65.45;;;23.42;;
84925;SDS011;75187;48.190;16.294;2024-03-08T10:30:21;65.82;;;23.90;;
84925;SDS011;75187;48.190;16.294;2024-03-08T10:32:48;61.38;;;24.55;;
84925;SDS011;75187;48.190;16.294;2024-03-08T10:35:13;58.35;;;22.58;;
84925;SDS011;75187;48.190;16.294;2024-03-08T10:37:46;58.13;;;22.17;;
84925;SDS011;75187;48.190;16.294;2024-03-08T10:40:22;52.72;;;19.45;;
84925;SDS011;75187;48.190;16.294;2024-03-08T10:42:53;57.13;;;21.17;;
84925;SDS011;75187;48.190;16.294;2024-03-08T10:45:35;55.15;;;20.25;;
84925;SDS011;75187;48.190;16.294;2024-03-08T10:50:45;39.65;;;16.30;;
84925;SDS011;75187;48.190;16.294;2024-03-08T10:53:11;49.35;;;20.00;;
84925;SDS011;75187;48.190;16.294;2024-03-08T10:55:39;37.55;;;15.77;;
84925;SDS011;75187;48.190;16.294;2024-03-08T10:58:08;40.85;;;16.55;;
84925;SDS011;75187;48.190;16.294;2024-03-08T11:00:34;42.83;;;18.73;;
84925;SDS011;75187;48.190;16.294;2024-03-08T11:03:00;39.63;;;16.65;;
84925;SDS011;75187;48.190;16.294;2024-03-08T11:05:38;35.08;;;14.30;;
84925;SDS011;75187;48.190;16.294;2024-03-08T11:08:14;37.50;;;14.57;;
84925;SDS011;75187;48.190;16.294;2024-03-08T11:10:50;36.78;;;15.77;;
84925;SDS011;75187;48.190;16.294;2024-03-08T11:13:40;31.88;;;15.05;;
84925;SDS011;75187;48.190;16.294;2024-03-08T11:16:11;33.28;;;13.57;;
84925;SDS011;75187;48.190;16.294;2024-03-08T11:18:58;30.98;;;13.95;;
84925;SDS011;75187;48.190;16.294;2024-03-08T11:21:33;30.45;;;14.25;;
84925;SDS011;75187;48.190;16.294;2024-03-08T11:23:59;30.98;;;13.38;;
84925;SDS011;75187;48.190;16.294;2024-03-08T11:26:25;34.67;;;15.43;;
84925;SDS011;75187;48.190;16.294;2024-03-08T11:28:51;33.17;;;14.90;;
84925;SDS011;75187;48.190;16.294;2024-03-08T11:33:46;28.52;;;13.73;;
84925;SDS011;75187;48.190;16.294;2024-03-08T11:36:14;28.98;;;14.05;;
84925;SDS011;75187;48.190;16.294;2024-03-08T11:38:47;25.17;;;11.55;;
84925;SDS011;75187;48.190;16.294;2024-03-08T11:41:18;25.75;;;12.60;;
84925;SDS011;75187;48.190;16.294;2024-03-08T11:43:45;23.48;;;11.40;;
84925;SDS011;75187;48.190;16.294;2024-03-08T11:46:11;22.75;;;10.60;;
84925;SDS011;75187;48.190;16.294;2024-03-08T11:48:41;22.20;;;11.20;;
84925;SDS011;75187;48.190;16.294;2024-03-08T11:51:07;19.55;;;9.35;;
84925;SDS011;75187;48.190;16.294;2024-03-08T11:53:33;19.60;;;9.95;;
84925;SDS011;75187;48.190;16.294;2024-03-08T11:56:11;21.90;;;9.10;;
84925;SDS011;75187;48.190;16.294;2024-03-08T11:58:38;19.27;;;8.73;;
84925;SDS011;75187;48.190;16.294;2024-03-08T12:01:09;18.60;;;9.15;;
84925;SDS011;75187;48.190;16.294;2024-03-08T12:03:41;20.33;;;9.82;;
84925;SDS011;75187;48.190;16.294;2024-03-08T12:06:10;18.90;;;9.05;;
84925;SDS011;75187;48.190;16.294;2024-03-08T12:08:36;18.17;;;8.82;;
84925;SDS011;75187;48.190;16.294;2024-03-08T12:11:03;18.65;;;8.82;;
84925;SDS011;75187;48.190;16.294;2024-03-08T12:13:30;16.48;;;9.80;;
84925;SDS011;75187;48.190;16.294;2024-03-08T12:15:57;16.05;;;9.02;;
84925;SDS011;75187;48.190;16.294;2024-03-08T12:18:24;17.55;;;9.93;;
84925;SDS011;75187;48.190;16.294;2024-03-08T12:20:51;23.17;;;11.85;;
84925;SDS011;75187;48.190;16.294;2024-03-08T12:23:17;21.70;;;10.98;;
84925;SDS011;75187;48.190;16.294;2024-03-08T12:25:42;24.30;;;10.57;;
84925;SDS011;75187;48.190;16.294;2024-03-08T12:28:08;20.13;;;10.70;;
84925;SDS011;75187;48.190;16.294;2024-03-08T12:30:35;21.52;;;10.75;;
84925;SDS011;75187;48.190;16.294;2024-03-08T12:33:10;22.25;;;12.10;;
84925;SDS011;75187;48.190;16.294;2024-03-08T12:35:37;21.55;;;11.20;;
84925;SDS011;75187;48.190;16.294;2024-03-08T12:38:03;24.00;;;11.55;;
84925;SDS011;75187;48.190;16.294;2024-03-08T12:40:31;25.77;;;12.82;;
84925;SDS011;75187;48.190;16.294;2024-03-08T12:42:59;20.95;;;10.73;;
84925;SDS011;75187;48.190;16.294;2024-03-08T12:45:25;18.50;;;9.50;;
84925;SDS011;75187;48.190;16.294;2024-03-08T12:47:52;22.90;;;11.15;;
84925;SDS011;75187;48.190;16.294;2024-03-08T12:50:23;23.80;;;12.20;;
84925;SDS011;75187;48.190;16.294;2024-03-08T12:52:51;25.67;;;12.98;;
84925;SDS011;75187;48.190;16.294;2024-03-08T12:55:20;21.58;;;11.00;;
84925;SDS011;75187;48.190;16.294;2024-03-08T12:57:46;24.58;;;12.05;;
84925;SDS011;75187;48.190;16.294;2024-03-08T13:00:14;23.08;;;11.88;;
84925;SDS011;75187;48.190;16.294;2024-03-08T13:02:46;23.60;;;11.40;;
84925;SDS011;75187;48.190;16.294;2024-03-08T13:05:12;25.55;;;11.68;;
84925;SDS011;75187;48.190;16.294;2024-03-08T13:07:39;21.70;;;11.18;;
84925;SDS011;75187;48.190;16.294;2024-03-08T13:10:05;23.70;;;10.93;;
84925;SDS011;75187;48.190;16.294;2024-03-08T13:12:31;20.75;;;11.00;;
84925;SDS011;75187;48.190;16.294;2024-03-08T13:14:57;20.20;;;10.73;;
84925;SDS011;75187;48.190;16.294;2024-03-08T13:17:23;17.77;;;10.10;;
84925;SDS011;75187;48.190;16.294;2024-03-08T13:19:48;22.23;;;9.85;;
84925;SDS011;75187;48.190;16.294;2024-03-08T13:22:13;22.20;;;9.82;;
84925;SDS011;75187;48.190;16.294;2024-03-08T13:24:42;19.73;;;10.07;;
84925;SDS011;75187;48.190;16.294;2024-03-08T13:27:08;19.63;;;9.27;;
84925;SDS011;75187;48.190;16.294;2024-03-08T13:29:47;20.15;;;10.05;;
84925;SDS011;75187;48.190;16.294;2024-03-08T13:32:13;25.17;;;11.13;;
84925;SDS011;75187;48.190;16.294;2024-03-08T13:34:42;19.17;;;9.98;;
84925;SDS011;75187;48.190;16.294;2024-03-08T13:37:10;19.17;;;9.35;;
84925;SDS011;75187;48.190;16.294;2024-03-08T13:39:36;17.13;;;9.10;;
84925;SDS011;75187;48.190;16.294;2024-03-08T13:42:08;17.85;;;8.95;;
84925;SDS011;75187;48.190;16.294;2024-03-08T13:44:36;14.02;;;7.95;;
84925;SDS011;75187;48.190;16.294;2024-03-08T13:47:02;18.27;;;9.48;;
84925;SDS011;75187;48.190;16.294;2024-03-08T13:49:29;19.17;;;9.23;;
84925;SDS011;75187;48.190;16.294;2024-03-08T13:51:55;19.15;;;9.73;;
84925;SDS011;75187;48.190;16.294;2024-03-08T13:54:20;17.10;;;9.80;;
84925;SDS011;75187;48.190;16.294;2024-03-08T13:56:46;16.23;;;9.00;;
84925;SDS011;75187;48.190;16.294;2024-03-08T13:59:12;17.02;;;8.57;;
84925;SDS011;75187;48.190;16.294;2024-03-08T14:01:38;17.20;;;9.82;;
84925;SDS011;75187;48.190;16.294;2024-03-08T14:04:03;17.27;;;9.75;;
84925;SDS011;75187;48.190;16.294;2024-03-08T14:06:29;17.50;;;9.65;;
84925;SDS011;75187;48.190;16.294;2024-03-08T14:08:55;17.30;;;9.35;;
84925;SDS011;75187;48.190;16.294;2024-03-08T14:11:22;16.77;;;9.00;;
84925;SDS011;75187;48.190;16.294;2024-03-08T14:13:48;18.50;;;9.05;;